Nearby METAR Reports

 

KTEB - Teterboro, New Jersey, USA
Distance from station: ENE 2mi, 4km
Updated: 11/15/2018 11:51am
Overcast
Overcast
 Wind from ENE
Wind: ENE 9 mph , 15 km/h
Temperature: 34°F , 1°C
Wind Chill: 27°F , -3°C
Dew Point: 18°F , -8°C
Humidity: 51%
Barometer: 30.46 inHg , 1031.5 hPa
Clouds: Overcast
Visibility: 10 miles , 16 km
Cloud details: Overcast 3000 ft
2018/11/15 16:51 KTEB 151651Z 06008KT 10SM OVC030 01/M08 A3046 RMK AO2 SLP315 T00061078
KNYC - Nyc/Central Park, New York, USA
Distance from station: SE 8mi, 13km
Updated: 11/15/2018 11:51am
Overcast
Overcast
 
Temperature: 34°F , 1°C
Dew Point: 19°F , -7°C
Humidity: 56%
Barometer: 30.48 inHg , 1032.2 hPa
Clouds: Overcast
Visibility: 10 miles , 16 km
Cloud details: Overcast 3200 ft
2018/11/15 16:51 KNYC 151651Z AUTO 10SM OVC032 01/M07 A3048 RMK AO2 SLP313 T00061072 FZRANO $
 
KCDW - Caldwell, New Jersey, USA
Distance from station: WNW 10mi, 17km
Updated: 11/15/2018 12:23pm
Overcast
Overcast
 Wind from E
Wind: E 12 mph , 19 km/h
Temperature: 30°F , -1°C
Wind Chill: 20°F , -7°C
Dew Point: 18°F , -8°C
Humidity: 59%
Barometer: 30.46 inHg , 1031.5 hPa
Clouds: Overcast
Visibility: 10 miles , 16 km
Cloud details: Overcast 3000 ft
2018/11/15 17:23 KCDW 151723Z 08010KT 10SM OVC030 M01/M08 A3046 RMK AO2 T10061083
KLGA - Nyc/La Guardia, New York, USA
Distance from station: ESE 12mi, 19km
Updated: 11/15/2018 11:51am
Overcast
Overcast
 Wind from ENE
Wind: ENE 15 mph , 24 km/h
Temperature: 36°F , 2°C
Wind Chill: 27°F , -3°C
Dew Point: 21°F , -6°C
Humidity: 56%
Barometer: 30.46 inHg , 1031.5 hPa
Clouds: Overcast
Visibility: 10 miles , 16 km
Cloud details: Partly cloudy 2900 ft
Overcast 3400 ft
2018/11/15 16:51 KLGA 151651Z 06013KT 10SM SCT029 OVC034 02/M06 A3046 RMK AO2 SLP315 T00221061
 
KEWR - Newark, New Jersey, USA
Distance from station: SSW 12mi, 20km
Updated: 11/15/2018 12:07pm
Overcast
Overcast
 Wind from NNE
Wind: NNE 14 mph , 22 km/h
Temperature: 34°F , 1°C
Wind Chill: 25°F , -4°C
Dew Point: 21°F , -6°C
Humidity: 60%
Barometer: 30.45 inHg , 1031.2 hPa
Clouds: Overcast
Visibility: 10 miles , 16 km
Cloud details: Overcast 3000 ft
2018/11/15 17:07 KEWR 151707Z 03012KT 10SM OVC030 01/M06 A3045 RMK AO2 T00061061
KMMU - Morristown Muni, New Jersey, USA
Distance from station: WSW 18mi, 29km
Updated: 11/15/2018 11:55am
Overcast
Overcast
 Wind from ENE
Wind: ENE 9 mph , 15 km/h, Gust: 15 mph , 24 km/h
Temperature: 32°F , 0°C
Wind Chill: 24°F , -4°C
Dew Point: 19°F , -7°C
Humidity: 60%
Barometer: 30.46 inHg , 1031.5 hPa
Clouds: Overcast
Visibility: 10 miles , 16 km
Cloud details: Overcast 3200 ft
2018/11/15 16:55 KMMU 151655Z 06008G13KT 10SM OVC032 00/M07 A3046
 
KJFK - Nyc/Jfk Arpt, New York, USA
Distance from station: SE 23mi, 36km
Updated: 11/15/2018 11:51am
Overcast
Overcast
 Wind from NE
Wind: NE 17 mph , 28 km/h
Temperature: 36°F , 2°C
Wind Chill: 26°F , -3°C
Dew Point: 21°F , -6°C
Humidity: 56%
Barometer: 30.47 inHg , 1031.8 hPa
Clouds: Overcast
Visibility: 10 miles , 16 km
Cloud details: Partly cloudy 3200 ft
Mostly cloudy 3900 ft
Overcast 11000 ft
2018/11/15 16:51 KJFK 151651Z 04015KT 10SM SCT032 BKN039 OVC110 02/M06 A3047 RMK AO2 SLP317 T00171061
KHPN - White Plains, New York, USA
Distance from station: NE 25mi, 40km
Updated: 11/15/2018 11:56am
Overcast
Overcast
 Wind from ENE
Wind: ENE 12 mph , 19 km/h
Temperature: 30°F , -1°C
Wind Chill: 20°F , -7°C
Dew Point: 12°F , -11°C
Humidity: 47%
Barometer: 30.45 inHg , 1031.2 hPa
Clouds: Overcast
Visibility: 10 miles , 16 km
Cloud details: Partly cloudy 3200 ft
Overcast 11000 ft
2018/11/15 16:56 KHPN 151656Z 06010KT 10SM SCT032 OVC110 M01/M11 A3045 RMK AO2 SLP322 T10111111
 
KSMQ - Somerville, New Jersey, USA
Distance from station: WSW 34mi, 55km
Updated: 11/15/2018 11:53am
Overcast
Overcast
 Wind from ENE
Wind: ENE 6 mph , 9 km/h
Temperature: 32°F , 0°C
Wind Chill: 26°F , -3°C
Dew Point: 16°F , -9°C
Humidity: 51%
Barometer: 30.43 inHg , 1030.5 hPa
Clouds: Overcast
Visibility: 10 miles , 16 km
Cloud details: Overcast 3100 ft
2018/11/15 16:53 KSMQ 151653Z AUTO 07005KT 10SM OVC031 00/M09 A3043 RMK AO2 SLP306 T00001089
K12N - Andover, New Jersey, USA
Distance from station: WNW 36mi, 57km
Updated: 11/15/2018 11:54am

 Wind from varies
Wind: varies 6 mph , 9 km/h
Temperature: 30°F , -1°C
Wind Chill: 24°F , -4°C
Dew Point: 16°F , -9°C
Humidity: 55%
Barometer: 30.43 inHg , 1030.5 hPa
2018/11/15 16:54 K12N 151654Z AUTO VRB05KT M01/M09 A3043 RMK AO1 SLP316 T10111094
 
KFRG - Farmingdale, New York, USA
Distance from station: ESE 36mi, 58km
Updated: 11/15/2018 11:53am
Overcast
Overcast
 Wind from ENE
Wind: ENE 10 mph , 17 km/h
Temperature: 34°F , 1°C
Wind Chill: 26°F , -3°C
Dew Point: 19°F , -7°C
Humidity: 56%
Barometer: 30.46 inHg , 1031.5 hPa
Clouds: Overcast
Visibility: 10 miles , 16 km
Cloud details: Overcast 3700 ft
2018/11/15 16:53 KFRG 151653Z 06009KT 10SM OVC037 01/M07 A3046 RMK AO2 SLP316 T00111067
KFWN - Sussex, New Jersey, USA
Distance from station: NW 37mi, 60km
Updated: 11/15/2018 12:30pm
Overcast
Overcast
 Wind from NNE
Wind: NNE 8 mph , 13 km/h
Temperature: 28°F , -2°C
Wind Chill: 20°F , -7°C
Dew Point: 16°F , -9°C
Humidity: 59%
Barometer: 30.42 inHg , 1030.1 hPa
Clouds: Overcast
Visibility: 10 miles , 16 km
Cloud details: Overcast 2900 ft
2018/11/15 17:30 KFWN 151730Z AUTO 03007KT 10SM OVC029 M02/M09 A3042 RMK AO2 T10171094
 
KSWF - Newburgh/Stewart, New York, USA
Distance from station: 0 45mi, 72km
Updated: 11/15/2018 11:45am
Overcast
Overcast
 Wind from E
Wind: E 7 mph , 11 km/h
Temperature: 28°F , -2°C
Wind Chill: 21°F , -6°C
Dew Point: 16°F , -9°C
Humidity: 59%
Barometer: 30.48 inHg , 1032.2 hPa
Clouds: Overcast
Visibility: 15 miles , 24 km
Cloud details: Overcast 10000 ft
2018/11/15 16:45 KSWF 151645Z 08006KT 15SM OVC100 M02/M09 A3048
KMGJ - Montgomery, New York, USA
Distance from station: NNW 47mi, 75km
Updated: 11/15/2018 11:54am
Few Clouds
Few Clouds
 Wind from ENE
Wind: ENE 7 mph , 11 km/h
Temperature: 28°F , -2°C
Wind Chill: 21°F , -6°C
Dew Point: 9°F , -13°C
Humidity: 43%
Barometer: 30.46 inHg , 1031.5 hPa
Clouds: Few Clouds
Visibility: 10 miles , 16 km
Cloud details: Few Clouds 12000 ft
2018/11/15 16:54 KMGJ 151654Z AUTO 07006KT 10SM FEW120 M02/M13 A3046 RMK AO2 SLP321 T10171128
 
KBLM - Belmar/Farmdale, New Jersey, USA
Distance from station: S 47mi, 76km
Updated: 11/15/2018 11:56am
Overcast
Overcast
 Wind from E
Wind: E 8 mph , 13 km/h
Temperature: 37°F , 3°C
Wind Chill: 31°F , -1°C
Dew Point: 30°F , -1°C
Humidity: 75%
Barometer: 30.42 inHg , 1030.1 hPa
Clouds: Overcast
Visibility: 10 miles , 16 km
Cloud details: Overcast 3000 ft
2018/11/15 16:56 KBLM 151656Z AUTO 08007KT 10SM OVC030 03/M01 A3042 RMK AO2 RAE16 SLP306 P0000 T00331006
KDXR - Danbury, Connecticut, USA
Distance from station: NE 47mi, 76km
Updated: 11/15/2018 11:53am
Clear
Clear
 Wind from ENE
Wind: ENE 8 mph , 13 km/h
Temperature: 28°F , -2°C
Wind Chill: 20°F , -7°C
Dew Point: 9°F , -13°C
Humidity: 43%
Barometer: 30.49 inHg , 1032.5 hPa
Clouds: Clear
Visibility: 10 miles , 16 km
2018/11/15 16:53 KDXR 151653Z 07007KT 10SM CLR M02/M13 A3049 RMK AO2 SLP329 T10221133
 
KISP - Islip, New York, USA
Distance from station: E 52mi, 83km
Updated: 11/15/2018 11:56am
Overcast
Overcast
 Wind from ENE
Wind: ENE 13 mph , 20 km/h
Temperature: 36°F , 2°C
Wind Chill: 27°F , -3°C
Dew Point: 21°F , -6°C
Humidity: 56%
Barometer: 30.46 inHg , 1031.5 hPa
Clouds: Overcast
Visibility: 10 miles , 16 km
Cloud details: Mostly cloudy 3400 ft
Overcast 12000 ft
2018/11/15 16:56 KISP 151656Z 07011KT 10SM BKN034 OVC120 02/M06 A3046 RMK AO2 SLP316 T00171061
KBDR - Bridgeport, Connecticut, USA
Distance from station: ENE 54mi, 87km
Updated: 11/15/2018 11:52am
Clear
Clear
 Wind from NE
Wind: NE 12 mph , 19 km/h
Temperature: 30°F , -1°C
Wind Chill: 20°F , -7°C
Dew Point: 9°F , -13°C
Humidity: 40%
Barometer: 30.50 inHg , 1032.8 hPa
Clouds: Clear
Visibility: 10 miles , 16 km
2018/11/15 16:52 KBDR 151652Z 04010KT 10SM CLR M01/M13 A3050 RMK AO2 SLP328 T10061128
 
KTTN - Trenton, New Jersey, USA
Distance from station: SW 55mi, 88km
Updated: 11/15/2018 12:15pm
Snow, Overcast
Snow, Overcast
 Wind from NE
Wind: NE 10 mph , 17 km/h
Temperature: 30°F , -1°C
Wind Chill: 21°F , -6°C
Dew Point: 25°F , -4°C
Humidity: 80%
Barometer: 30.41 inHg , 1029.8 hPa
Summary: Snow
Clouds: Overcast
Visibility: 1/2 mile , 0.8 km
Cloud details: Overcast 1300 ft
2018/11/15 17:15 KTTN 151715Z 05009KT 1/2SM SN VV013 M01/M04 A3041 RMK AO2 P0000 T10111044
KPOU - Poughkeepsie, New York, USA
Distance from station: N 55mi, 89km
Updated: 11/15/2018 11:53am
Clear
Clear
 Wind from NE
Wind: NE 5 mph , 7 km/h
Temperature: 30°F , -1°C
Wind Chill: 25°F , -4°C
Dew Point: 10°F , -12°C
Humidity: 43%
Barometer: 30.49 inHg , 1032.5 hPa
Clouds: Clear
Visibility: 10 miles , 16 km
2018/11/15 16:53 KPOU 151653Z 05004KT 10SM CLR M01/M12 A3049 RMK AO2 SLP323 T10111122
 
KNEL - Lakehurst Nas, New Jersey, USA
Distance from station: SSW 59mi, 95km
Updated: 11/15/2018 12:24pm
Light snow, Mist, Overcast
Light snow, Mist, Overcast
 Wind from calm
Wind: Calm
Temperature: 34°F , 1°C
Dew Point: 34°F , 1°C
Humidity: 100%
Barometer: 30.39 inHg , 1029.1 hPa
Summary: Light snow, Mist
Clouds: Overcast
Visibility: 1 mile , 2 km
Cloud details: Overcast 1400 ft
2018/11/15 17:24 KNEL 151724Z 00000KT 1SM -SN BR OVC014 01/01 A3039 RMK AO2 T00110011 PNO $
KWRI - Wrightst/Mcguire, New Jersey, USA
Distance from station: SSW 63mi, 102km
Updated: 11/15/2018 12:18pm

 Wind from NE
Wind: NE 9 mph , 15 km/h
2018/11/15 17:18 KWRI 151718Z 04008KT 7/8 SN OVC009 00/M01 A3037 RMK TWR VIS 1 VIS 1/2 RWY06/24 VIS 1 7/8 RWY24 VIS 3/4 RWY36 CIG 009V011 SLP285 RVRNO $
 
KHWV - Shirley, New York, USA
Distance from station: E 64mi, 103km
Updated: 11/15/2018 11:56am
Mostly cloudy
Mostly cloudy
 Wind from NE
Wind: NE 8 mph , 13 km/h
Temperature: 36°F , 2°C
Wind Chill: 30°F , -1°C
Dew Point: 21°F , -6°C
Humidity: 56%
Barometer: 30.47 inHg , 1031.8 hPa
Clouds: Mostly cloudy
Visibility: 10 miles , 16 km
Cloud details: Mostly cloudy 3400 ft
Mostly cloudy 12000 ft
2018/11/15 16:56 KHWV 151656Z AUTO 05007KT 360V090 10SM BKN034 BKN120 02/M06 A3047 RMK AO2 SLP320 T00171061
KMJX - Toms River, New Jersey, USA
Distance from station: S 64mi, 104km
Updated: 11/15/2018 12:29pm
Rain, Overcast
Rain, Overcast
 Wind from E
Wind: E 9 mph , 15 km/h, Gust: 20 mph , 31 km/h
Temperature: 37°F , 3°C
Wind Chill: 30°F , -1°C
Dew Point: 36°F , 2°C
Humidity: 93%
Barometer: 30.39 inHg , 1029.1 hPa
Summary: Rain
Clouds: Overcast
Visibility: 7 miles , 11 km
Cloud details: Overcast 1400 ft
2018/11/15 17:29 KMJX 151729Z AUTO 09008G17KT 7SM RA OVC014 03/02 A3039 RMK AO2 P0007
 
KDYL - Doylestown, Pennsylvania, USA
Distance from station: SW 65mi, 104km
Updated: 11/15/2018 12:28pm
Light snow, Mist, Overcast
Light snow, Mist, Overcast
 Wind from NE
Wind: NE 8 mph , 13 km/h
Temperature: 27°F , -3°C
Wind Chill: 19°F , -7°C
Dew Point: 25°F , -4°C
Humidity: 93%
Barometer: 30.39 inHg , 1029.1 hPa
Summary: Light snow, Mist
Clouds: Overcast
Visibility: 3/4 mile , 1.2 km
Cloud details: Overcast 800 ft
2018/11/15 17:28 KDYL 151728Z AUTO 04007KT 3/4SM -SN BR VV008 M03/M04 A3039 RMK AO2 P0000 T10281044
KOXC - Oxford/Waterbury, Connecticut, USA
Distance from station: NE 65mi, 105km
Updated: 11/15/2018 11:51am
Clear
Clear
 Wind from ENE
Wind: ENE 9 mph , 15 km/h
Temperature: 27°F , -3°C
Wind Chill: 18°F , -8°C
Dew Point: 9°F , -13°C
Humidity: 46%
Barometer: 30.47 inHg , 1031.8 hPa
Clouds: Clear
Visibility: 10 miles , 16 km
2018/11/15 16:51 KOXC 151651Z 06008KT 10SM CLR M03/M13 A3047 RMK AO2 SLP341 T10331133
 
KMSV - Monticello, New York, USA
Distance from station: NNW 69mi, 111km
Updated: 11/15/2018 11:56am
Few Clouds
Few Clouds
 Wind from E
Wind: E 6 mph , 9 km/h
Temperature: 25°F , -4°C
Wind Chill: 18°F , -8°C
Dew Point: 12°F , -11°C
Humidity: 59%
Barometer: 30.41 inHg , 1029.8 hPa
Clouds: Few Clouds
Visibility: 10 miles , 16 km
Cloud details: Few Clouds 11000 ft
2018/11/15 16:56 KMSV 151656Z AUTO 10005KT 10SM FEW110 M04/M11 A3041 RMK AO2 SLP319 T10391106 FZRANO
KHVN - New Haven/Tweed, Connecticut, USA
Distance from station: ENE 70mi, 112km
Updated: 11/15/2018 11:53am
Clear
Clear
 Wind from NE
Wind: NE 9 mph , 15 km/h
Temperature: 32°F , 0°C
Wind Chill: 24°F , -4°C
Dew Point: 7°F , -14°C
Humidity: 34%
Barometer: 30.51 inHg , 1033.2 hPa
Clouds: Clear
Visibility: 10 miles , 16 km
2018/11/15 16:53 KHVN 151653Z 05008KT 10SM CLR 00/M14 A3051 RMK AO2 SLP330 T00001144
 
KMPO - Mt. Pocono, Pennsylvania, USA
Distance from station: WNW 70mi, 113km
Updated: 11/15/2018 12:10pm
Overcast
Overcast
 Wind from E
Wind: E 9 mph , 15 km/h
Temperature: 21°F , -6°C
Wind Chill: 11°F , -12°C
Dew Point: 12°F , -11°C
Humidity: 68%
Barometer: 30.32 inHg , 1026.8 hPa
Clouds: Overcast
Visibility: 10 miles , 16 km
Cloud details: Mostly cloudy 1500 ft
Overcast 7500 ft
2018/11/15 17:10 KMPO 151710Z AUTO 08008KT 10SM BKN015 OVC075 M06/M11 A3032 RMK AO2 T10561106
KPNE - Philadelphia/Ne, Pennsylvania, USA
Distance from station: SW 72mi, 116km
Updated: 11/15/2018 12:28pm
Heavy snow, Freezing, Fog, Overcast
Heavy snow, Freezing, Fog, Overcast
 Wind from NE
Wind: NE 13 mph , 20 km/h
Temperature: 30°F , -1°C
Wind Chill: 20°F , -7°C
Dew Point: 28°F , -2°C
Humidity: 93%
Barometer: 30.40 inHg , 1029.5 hPa
Summary: Heavy snow, Freezing, Fog
Clouds: Overcast
Visibility: 1/4 mile , 0.4 km
Cloud details: Overcast 800 ft
2018/11/15 17:28 KPNE 151728Z 05011KT 1/4SM +SN FZFG VV008 M01/M02 A3040 RMK AO2 PRESFR P0007 T10061022 RVRNO
 
KABE - Allentown, Pennsylvania, USA
Distance from station: W 73mi, 117km
Updated: 11/15/2018 12:28pm
Light snow, Overcast
Light snow, Overcast
 Wind from ENE
Wind: ENE 10 mph , 17 km/h
Temperature: 32°F , 0°C
Wind Chill: 24°F , -4°C
Dew Point: 18°F , -8°C
Humidity: 55%
Barometer: 30.40 inHg , 1029.5 hPa
Summary: Light Snow
Clouds: Overcast
Visibility: 2 miles , 3 km
Cloud details: Mostly cloudy 2600 ft
Overcast 3100 ft
2018/11/15 17:28 KABE 151728Z 06009KT 2SM -SN BKN026 OVC031 00/M08 A3040 RMK AO2 SFC VIS 4 SNB21 P0000 T00001078
KUKT - Quakertown Arp, Pennsylvania, USA
Distance from station: WSW 74mi, 119km
Updated: 11/15/2018 12:15pm
Haze, Overcast
Haze, Overcast
 Wind from NE
Wind: NE 7 mph , 11 km/h
Temperature: 28°F , -2°C
Wind Chill: 21°F , -6°C
Dew Point: 23°F , -5°C
Humidity: 80%
Barometer: 30.39 inHg , 1029.1 hPa
Summary: Haze
Clouds: Overcast
Visibility: 1/2 mile , 0.8 km
Cloud details: Overcast 200 ft
2018/11/15 17:15 KUKT 151715Z AUTO 05006KT 1/2SM HZ OVC002 M02/M05 A3039 RMK A01
 
KVAY - Mount Holly, New Jersey, USA
Distance from station: SSW 75mi, 120km
Updated: 11/15/2018 12:22pm
Heavy snow, Freezing, Fog, Overcast
Heavy snow, Freezing, Fog, Overcast
 Wind from NE
Wind: NE 7 mph , 11 km/h
Temperature: 30°F , -1°C
Wind Chill: 23°F , -5°C
Dew Point: 30°F , -1°C
Humidity: 100%
Barometer: 30.39 inHg , 1029.1 hPa
Summary: Heavy snow, Freezing, Fog
Clouds: Overcast
Visibility: 1/4 mile , 0.4 km
Cloud details: Mostly cloudy 700 ft
Overcast 1300 ft
2018/11/15 17:22 KVAY 151722Z AUTO 04006KT 1/4SM +SN FZFG BKN007 OVC013 M01/M01 A3039 RMK AO2 P0000 T10061006
KXLL - Allentown Queen, Pennsylvania, USA
Distance from station: WSW 76mi, 122km
Updated: 11/15/2018 12:15pm
Light snow, Overcast
Light snow, Overcast
 Wind from NE
Wind: NE 9 mph , 15 km/h
Temperature: 32°F , 0°C
Wind Chill: 24°F , -4°C
Dew Point: 23°F , -5°C
Humidity: 69%
Barometer: 30.41 inHg , 1029.8 hPa
Summary: Light Snow
Clouds: Overcast
Visibility: 2 1/2 miles , 4 km
Cloud details: Mostly cloudy 1700 ft
Mostly cloudy 2600 ft
Overcast 3100 ft
2018/11/15 17:15 KXLL 151715Z AUTO 05008KT 2 1/2SM -SN BKN017 BKN026 OVC031 00/M05 A3041 RMK AO2 VIS 1 1/4V5
 
KFOK - Westhampton Beac, New York, USA
Distance from station: E 77mi, 124km
Updated: 11/15/2018 11:53am
Overcast
Overcast
 Wind from NE
Wind: NE 12 mph , 19 km/h
Temperature: 36°F , 2°C
Wind Chill: 28°F , -2°C
Dew Point: 21°F , -6°C
Humidity: 56%
Barometer: 30.49 inHg , 1032.5 hPa
Clouds: Overcast
Visibility: 10 miles , 16 km
Cloud details: Overcast 3400 ft
2018/11/15 16:53 KFOK 151653Z 04010KT 10SM OVC034 02/M06 A3049 RMK AO2 SLP325 T00171061 $
KLOM - Philly Wings F, Pennsylvania, USA
Distance from station: SW 79mi, 128km
Updated: 11/15/2018 12:15pm
Overcast
Overcast
 Wind from ENE
Wind: ENE 7 mph , 11 km/h
Temperature: 28°F , -2°C
Wind Chill: 21°F , -6°C
Dew Point: 28°F , -2°C
Humidity: 100%
Barometer: 30.41 inHg , 1029.8 hPa
Clouds: Overcast
Visibility: 1/4 mile , 0.4 km
Cloud details: Overcast 200 ft
2018/11/15 17:15 KLOM 151715Z AUTO 06006KT 1/4SM VV002 M02/M02 A3041 RMK AO1
 
KMMK - Meriden, Connecticut, USA
Distance from station: NE 80mi, 128km
Updated: 11/15/2018 11:53am
Clear
Clear
 Wind from NNE
Wind: NNE 6 mph , 9 km/h
Temperature: 30°F , -1°C
Wind Chill: 24°F , -4°C
Dew Point: 9°F , -13°C
Humidity: 40%
Barometer: 30.52 inHg , 1033.5 hPa
Clouds: Clear
Visibility: 10 miles , 16 km
2018/11/15 16:53 KMMK 151653Z AUTO 02005KT 10SM CLR M01/M13 A3052 RMK AO2 SLP335 T10111133
KPTW - Pottstown, Pennsylvania, USA
Distance from station: WSW 88mi, 141km
Updated: 11/15/2018 12:07pm
Heavy snow, Freezing, Fog, Overcast
Heavy snow, Freezing, Fog, Overcast
 Wind from ENE
Wind: ENE 7 mph , 11 km/h
Temperature: 27°F , -3°C
Wind Chill: 19°F , -7°C
Dew Point: 25°F , -4°C
Humidity: 93%
Barometer: 30.41 inHg , 1029.8 hPa
Summary: Heavy snow, Freezing, Fog
Clouds: Overcast
Visibility: 1/4 mile , 0.4 km
Cloud details: Overcast 700 ft
2018/11/15 17:07 KPTW 151707Z AUTO 06006KT 1/4SM +SN FZFG VV007 M03/M04 A3041 RMK AO2 P0002 T10281039
 
KSNC - Chester, Connecticut, USA
Distance from station: ENE 90mi, 146km
Updated: 11/15/2018 12:15pm
Clear
Clear
 Wind from ENE
Wind: ENE 7 mph , 11 km/h
Temperature: 30°F , -1°C
Wind Chill: 23°F , -5°C
Dew Point: -0°F , -18°C
Humidity: 26%
Barometer: 30.48 inHg , 1032.2 hPa
Clouds: Clear
Visibility: 10 miles , 16 km
2018/11/15 17:15 KSNC 151715Z AUTO 06006KT 10SM CLR M01/M18 A3048 RMK AO2
KPHL - Philadelphia, Pennsylvania, USA
Distance from station: SW 91mi, 146km
Updated: 11/15/2018 12:22pm
Heavy snow, Freezing, Fog, Overcast
Heavy snow, Freezing, Fog, Overcast
 Wind from NE
Wind: NE 13 mph , 20 km/h
Temperature: 30°F , -1°C
Wind Chill: 20°F , -7°C
Dew Point: 28°F , -2°C
Humidity: 93%
Barometer: 30.38 inHg , 1028.8 hPa
Summary: Heavy snow, Freezing, Fog
Clouds: Overcast
Visibility: 1/4 mile , 0.4 km
Cloud details: Overcast 900 ft
2018/11/15 17:22 KPHL 151722Z 04011KT 1/4SM R09R/2000V2800FT +SN FZFG OVC009 M01/M02 A3038 RMK AO2 PRESFR P0006 T10111022
 
KAVP - Avoca/Wilkes B., Pennsylvania, USA
Distance from station: WNW 91mi, 147km
Updated: 11/15/2018 11:54am
Overcast
Overcast
 Wind from varies
Wind: varies 3 mph , 6 km/h
Temperature: 30°F , -1°C
Dew Point: 12°F , -11°C
Humidity: 47%
Barometer: 30.36 inHg , 1028.1 hPa
Clouds: Overcast
Visibility: 10 miles , 16 km
Cloud details: Overcast 9500 ft
2018/11/15 16:54 KAVP 151654Z VRB03KT 10SM OVC095 M01/M11 A3036 RMK AO2 SLP291 T10111111
KHFD - Hartford/Brainar, Connecticut, USA
Distance from station: NE 96mi, 155km
Updated: 11/15/2018 11:53am
Clear
Clear
 Wind from calm
Wind: Calm
Temperature: 28°F , -2°C
Dew Point: 10°F , -12°C
Humidity: 47%
Barometer: 30.53 inHg , 1033.9 hPa
Clouds: Clear
Visibility: 10 miles , 16 km
2018/11/15 16:53 KHFD 151653Z 00000KT 10SM CLR M02/M12 A3053 RMK AO2 SLP338 T10171122
 
KHTO - East Hampton, New York, USA
Distance from station: E 96mi, 155km
Updated: 11/15/2018 12:15pm
Overcast
Overcast
 Wind from ENE
Wind: ENE 8 mph , 13 km/h
Temperature: 34°F , 1°C
Wind Chill: 27°F , -3°C
Dew Point: 25°F , -4°C
Humidity: 70%
Barometer: 30.48 inHg , 1032.2 hPa
Clouds: Overcast
Visibility: 10 miles , 16 km
Cloud details: Overcast 2400 ft
2018/11/15 17:15 KHTO 151715Z AUTO 06007KT 10SM OVC024 01/M04 A3048 RMK AO2 T00071037
KACY - Atlantic City, New Jersey, USA
Distance from station: SSW 99mi, 160km
Updated: 11/15/2018 11:54am
Light rain, Mist, Overcast
Light rain, Mist, Overcast
 Wind from E
Wind: E 12 mph , 19 km/h
Temperature: 41°F , 5°C
Wind Chill: 34°F , 1°C
Dew Point: 39°F , 4°C
Humidity: 93%
Barometer: 30.36 inHg , 1028.1 hPa
Summary: Light rain, Mist
Clouds: Overcast
Visibility: 6 miles , 10 km
Cloud details: Overcast 1800 ft
2018/11/15 16:54 KACY 151654Z 08010KT 6SM -RA BR OVC018 05/04 A3036 RMK AO2 SLP282 P0015 T00500039